sensor_id;sensor_type;location;lat;lon;timestamp;pressure;altitude;pressure_sealevel;temperature;humidity
7180;BME280;3631;42.152;24.756;2022-12-18T00:01:15;99954.91;;;10.72;100.00
7180;BME280;3631;42.152;24.756;2022-12-18T00:03:43;99966.72;;;10.85;100.00
7180;BME280;3631;42.152;24.756;2022-12-18T00:06:10;99953.94;;;10.78;100.00
7180;BME280;3631;42.152;24.756;2022-12-18T00:08:39;99953.13;;;10.74;100.00
7180;BME280;3631;42.152;24.756;2022-12-18T00:11:07;99968.66;;;10.77;100.00
7180;BME280;3631;42.152;24.756;2022-12-18T00:13:34;99972.34;;;10.67;100.00
7180;BME280;3631;42.152;24.756;2022-12-18T00:16:05;99979.25;;;10.68;100.00
7180;BME280;3631;42.152;24.756;2022-12-18T00:18:32;99986.00;;;10.75;100.00
7180;BME280;3631;42.152;24.756;2022-12-18T00:21:00;100001.75;;;10.68;100.00
7180;BME280;3631;42.152;24.756;2022-12-18T00:23:27;100014.75;;;10.68;100.00
7180;BME280;3631;42.152;24.756;2022-12-18T00:25:54;100014.13;;;10.55;100.00
7180;BME280;3631;42.152;24.756;2022-12-18T00:28:25;100009.75;;;10.59;100.00
7180;BME280;3631;42.152;24.756;2022-12-18T00:30:59;100014.69;;;10.71;100.00
7180;BME280;3631;42.152;24.756;2022-12-18T00:33:28;100017.16;;;10.75;100.00
7180;BME280;3631;42.152;24.756;2022-12-18T00:36:00;100011.03;;;10.79;100.00
7180;BME280;3631;42.152;24.756;2022-12-18T00:38:27;100017.91;;;10.82;100.00
7180;BME280;3631;42.152;24.756;2022-12-18T00:40:54;100017.13;;;10.77;100.00
7180;BME280;3631;42.152;24.756;2022-12-18T00:43:21;100031.50;;;10.93;100.00
7180;BME280;3631;42.152;24.756;2022-12-18T00:45:47;100033.31;;;10.89;100.00
7180;BME280;3631;42.152;24.756;2022-12-18T00:48:14;100034.22;;;10.87;100.00
7180;BME280;3631;42.152;24.756;2022-12-18T00:50:42;100048.38;;;10.72;100.00
7180;BME280;3631;42.152;24.756;2022-12-18T00:53:09;100048.53;;;10.65;100.00
7180;BME280;3631;42.152;24.756;2022-12-18T00:55:37;100051.25;;;10.60;100.00
7180;BME280;3631;42.152;24.756;2022-12-18T00:58:04;100052.94;;;10.61;100.00
7180;BME280;3631;42.152;24.756;2022-12-18T01:00:31;100045.44;;;10.47;100.00
7180;BME280;3631;42.152;24.756;2022-12-18T01:02:58;100042.03;;;10.44;100.00
7180;BME280;3631;42.152;24.756;2022-12-18T01:05:25;100040.44;;;10.38;100.00
7180;BME280;3631;42.152;24.756;2022-12-18T01:07:55;100037.00;;;10.38;100.00
7180;BME280;3631;42.152;24.756;2022-12-18T01:10:23;100027.75;;;10.23;100.00
7180;BME280;3631;42.152;24.756;2022-12-18T01:12:50;100047.53;;;10.29;100.00
7180;BME280;3631;42.152;24.756;2022-12-18T01:15:18;100047.53;;;10.29;100.00
7180;BME280;3631;42.152;24.756;2022-12-18T01:17:45;100045.75;;;10.31;100.00
7180;BME280;3631;42.152;24.756;2022-12-18T01:20:12;100032.84;;;10.28;100.00
7180;BME280;3631;42.152;24.756;2022-12-18T01:22:39;100028.38;;;10.36;100.00
7180;BME280;3631;42.152;24.756;2022-12-18T01:25:08;100034.56;;;10.29;100.00
7180;BME280;3631;42.152;24.756;2022-12-18T01:27:35;100040.56;;;10.31;100.00
7180;BME280;3631;42.152;24.756;2022-12-18T01:30:03;100045.88;;;10.25;100.00
7180;BME280;3631;42.152;24.756;2022-12-18T01:32:30;100042.53;;;10.18;100.00
7180;BME280;3631;42.152;24.756;2022-12-18T01:34:57;100040.91;;;10.12;100.00
7180;BME280;3631;42.152;24.756;2022-12-18T01:37:24;100032.25;;;10.12;100.00
7180;BME280;3631;42.152;24.756;2022-12-18T01:39:52;100038.13;;;10.23;100.00
7180;BME280;3631;42.152;24.756;2022-12-18T01:42:21;100042.34;;;10.29;100.00
7180;BME280;3631;42.152;24.756;2022-12-18T01:44:58;100039.66;;;10.33;100.00
7180;BME280;3631;42.152;24.756;2022-12-18T01:47:29;100043.06;;;10.37;100.00
7180;BME280;3631;42.152;24.756;2022-12-18T01:50:00;100040.44;;;10.38;100.00
7180;BME280;3631;42.152;24.756;2022-12-18T01:52:29;100041.38;;;10.34;100.00
7180;BME280;3631;42.152;24.756;2022-12-18T01:54:58;100044.25;;;10.19;100.00
7180;BME280;3631;42.152;24.756;2022-12-18T01:57:28;100043.38;;;10.17;100.00
7180;BME280;3631;42.152;24.756;2022-12-18T01:59:59;100045.03;;;10.24;100.00
7180;BME280;3631;42.152;24.756;2022-12-18T02:02:28;100050.06;;;10.32;100.00
7180;BME280;3631;42.152;24.756;2022-12-18T02:04:55;100062.13;;;10.34;100.00
7180;BME280;3631;42.152;24.756;2022-12-18T02:07:28;100052.66;;;10.32;100.00
7180;BME280;3631;42.152;24.756;2022-12-18T02:10:01;100049.97;;;10.38;100.00
7180;BME280;3631;42.152;24.756;2022-12-18T02:12:37;100063.69;;;10.43;100.00
7180;BME280;3631;42.152;24.756;2022-12-18T02:15:13;100056.78;;;10.42;100.00
7180;BME280;3631;42.152;24.756;2022-12-18T02:17:47;100061.03;;;10.46;100.00
7180;BME280;3631;42.152;24.756;2022-12-18T02:20:19;100055.03;;;10.42;100.00
7180;BME280;3631;42.152;24.756;2022-12-18T02:23:01;100070.66;;;10.41;100.00
7180;BME280;3631;42.152;24.756;2022-12-18T02:25:52;100069.97;;;10.31;100.00
7180;BME280;3631;42.152;24.756;2022-12-18T02:28:24;100077.59;;;10.39;100.00
7180;BME280;3631;42.152;24.756;2022-12-18T02:30:54;100078.38;;;10.44;100.00
7180;BME280;3631;42.152;24.756;2022-12-18T02:33:24;100076.41;;;10.57;100.00
7180;BME280;3631;42.152;24.756;2022-12-18T02:35:53;100078.94;;;10.60;100.00
7180;BME280;3631;42.152;24.756;2022-12-18T02:38:22;100066.75;;;10.63;100.00
7180;BME280;3631;42.152;24.756;2022-12-18T02:40:52;100056.97;;;10.76;100.00
7180;BME280;3631;42.152;24.756;2022-12-18T02:43:20;100061.22;;;10.80;100.00
7180;BME280;3631;42.152;24.756;2022-12-18T02:45:48;100068.88;;;10.84;100.00
7180;BME280;3631;42.152;24.756;2022-12-18T02:48:17;100062.97;;;10.79;100.00
7180;BME280;3631;42.152;24.756;2022-12-18T02:50:51;100062.00;;;10.83;100.00
7180;BME280;3631;42.152;24.756;2022-12-18T02:53:25;100061.34;;;10.72;100.00
7180;BME280;3631;42.152;24.756;2022-12-18T02:56:00;100063.75;;;10.83;100.00
7180;BME280;3631;42.152;24.756;2022-12-18T02:58:33;100072.41;;;10.83;100.00
7180;BME280;3631;42.152;24.756;2022-12-18T03:01:10;100069.81;;;10.83;100.00
7180;BME280;3631;42.152;24.756;2022-12-18T03:03:43;100074.09;;;10.84;100.00
7180;BME280;3631;42.152;24.756;2022-12-18T03:06:18;100070.00;;;10.73;100.00
7180;BME280;3631;42.152;24.756;2022-12-18T03:08:49;100083.72;;;10.79;100.00
7180;BME280;3631;42.152;24.756;2022-12-18T03:11:19;100081.94;;;10.83;100.00
7180;BME280;3631;42.152;24.756;2022-12-18T03:14:07;100081.06;;;10.82;100.00
7180;BME280;3631;42.152;24.756;2022-12-18T03:16:35;100076.75;;;10.83;100.00
7180;BME280;3631;42.152;24.756;2022-12-18T03:19:06;100081.03;;;10.84;100.00
7180;BME280;3631;42.152;24.756;2022-12-18T03:21:40;100070.06;;;10.71;100.00
7180;BME280;3631;42.152;24.756;2022-12-18T03:24:10;100087.03;;;10.86;100.00
7180;BME280;3631;42.152;24.756;2022-12-18T03:26:41;100091.63;;;10.73;100.00
7180;BME280;3631;42.152;24.756;2022-12-18T03:29:14;100097.97;;;10.60;100.00
7180;BME280;3631;42.152;24.756;2022-12-18T03:31:48;100089.22;;;10.64;100.00
7180;BME280;3631;42.152;24.756;2022-12-18T03:34:21;100090.91;;;10.67;100.00
7180;BME280;3631;42.152;24.756;2022-12-18T03:36:49;100093.53;;;10.65;100.00
7180;BME280;3631;42.152;24.756;2022-12-18T03:39:16;100095.22;;;10.68;100.00
7180;BME280;3631;42.152;24.756;2022-12-18T03:41:50;100101.97;;;10.75;100.00
7180;BME280;3631;42.152;24.756;2022-12-18T03:44:22;100115.72;;;10.81;100.00
7180;BME280;3631;42.152;24.756;2022-12-18T03:46:59;100121.81;;;10.79;100.00
7180;BME280;3631;42.152;24.756;2022-12-18T03:49:34;100133.06;;;10.79;100.00
7180;BME280;3631;42.152;24.756;2022-12-18T03:52:05;100138.22;;;10.82;100.00
7180;BME280;3631;42.152;24.756;2022-12-18T03:54:34;100134.81;;;10.79;100.00
7180;BME280;3631;42.152;24.756;2022-12-18T03:57:07;100136.59;;;10.75;100.00
7180;BME280;3631;42.152;24.756;2022-12-18T03:59:37;100136.66;;;10.72;100.00
7180;BME280;3631;42.152;24.756;2022-12-18T04:02:06;100148.66;;;10.79;100.00
7180;BME280;3631;42.152;24.756;2022-12-18T04:04:35;100148.69;;;10.76;100.00
7180;BME280;3631;42.152;24.756;2022-12-18T04:07:03;100140.03;;;10.77;100.00
7180;BME280;3631;42.152;24.756;2022-12-18T04:09:32;100147.78;;;10.79;100.00
7180;BME280;3631;42.152;24.756;2022-12-18T04:11:59;100151.34;;;10.73;100.00
7180;BME280;3631;42.152;24.756;2022-12-18T04:14:27;100153.09;;;10.73;100.00
7180;BME280;3631;42.152;24.756;2022-12-18T04:16:54;100164.41;;;10.70;100.00
7180;BME280;3631;42.152;24.756;2022-12-18T04:19:21;100153.88;;;10.76;100.00
7180;BME280;3631;42.152;24.756;2022-12-18T04:21:48;100152.28;;;10.71;100.00
7180;BME280;3631;42.152;24.756;2022-12-18T04:24:15;100154.94;;;10.68;100.00
7180;BME280;3631;42.152;24.756;2022-12-18T04:26:42;100162.88;;;10.60;100.00
7180;BME280;3631;42.152;24.756;2022-12-18T04:29:09;100156.91;;;10.55;100.00
7180;BME280;3631;42.152;24.756;2022-12-18T04:31:37;100159.38;;;10.61;100.00
7180;BME280;3631;42.152;24.756;2022-12-18T04:34:04;100162.88;;;10.60;100.00
7180;BME280;3631;42.152;24.756;2022-12-18T04:36:31;100161.03;;;10.65;100.00
7180;BME280;3631;42.152;24.756;2022-12-18T04:38:58;100162.75;;;10.65;100.00
7180;BME280;3631;42.152;24.756;2022-12-18T04:41:25;100160.16;;;10.65;100.00
7180;BME280;3631;42.152;24.756;2022-12-18T04:43:52;100165.34;;;10.66;100.00
7180;BME280;3631;42.152;24.756;2022-12-18T04:46:19;100176.78;;;10.56;100.00
7180;BME280;3631;42.152;24.756;2022-12-18T04:48:47;100170.88;;;10.48;100.00
7180;BME280;3631;42.152;24.756;2022-12-18T04:51:14;100183.03;;;10.46;100.00
7180;BME280;3631;42.152;24.756;2022-12-18T04:53:41;100183.03;;;10.46;100.00
7180;BME280;3631;42.152;24.756;2022-12-18T04:56:10;100190.81;;;10.46;100.00
7180;BME280;3631;42.152;24.756;2022-12-18T04:58:37;100190.91;;;10.40;100.00
7180;BME280;3631;42.152;24.756;2022-12-18T05:01:05;100204.81;;;10.37;100.00
7180;BME280;3631;42.152;24.756;2022-12-18T05:03:33;100189.47;;;10.24;100.00
7180;BME280;3631;42.152;24.756;2022-12-18T05:06:01;100210.91;;;10.33;100.00
7180;BME280;3631;42.152;24.756;2022-12-18T05:08:28;100214.56;;;10.23;100.00
7180;BME280;3631;42.152;24.756;2022-12-18T05:10:58;100209.53;;;10.11;100.00
7180;BME280;3631;42.152;24.756;2022-12-18T05:13:25;100225.69;;;10.30;100.00
7180;BME280;3631;42.152;24.756;2022-12-18T05:15:53;100231.75;;;10.29;100.00
7180;BME280;3631;42.152;24.756;2022-12-18T05:18:20;100232.72;;;10.22;100.00
7180;BME280;3631;42.152;24.756;2022-12-18T05:20:47;100236.16;;;10.25;100.00
7180;BME280;3631;42.152;24.756;2022-12-18T05:23:15;100246.59;;;10.17;100.00
7180;BME280;3631;42.152;24.756;2022-12-18T05:25:42;100242.31;;;10.15;100.00
7180;BME280;3631;42.152;24.756;2022-12-18T05:28:09;100251.84;;;10.14;100.00
7180;BME280;3631;42.152;24.756;2022-12-18T05:30:36;100260.50;;;10.13;100.00
7180;BME280;3631;42.152;24.756;2022-12-18T05:33:03;100263.97;;;10.14;100.00
7180;BME280;3631;42.152;24.756;2022-12-18T05:35:30;100272.59;;;10.14;100.00
7180;BME280;3631;42.152;24.756;2022-12-18T05:37:57;100281.19;;;10.19;100.00
7180;BME280;3631;42.152;24.756;2022-12-18T05:40:25;100281.19;;;10.18;100.00
7180;BME280;3631;42.152;24.756;2022-12-18T05:42:52;100281.25;;;10.13;100.00
7180;BME280;3631;42.152;24.756;2022-12-18T05:45:19;100266.75;;;9.99;100.00
7180;BME280;3631;42.152;24.756;2022-12-18T05:47:46;100283.03;;;10.10;100.00
7180;BME280;3631;42.152;24.756;2022-12-18T05:50:13;100276.13;;;10.09;100.00
7180;BME280;3631;42.152;24.756;2022-12-18T05:52:40;100285.59;;;10.11;100.00
7180;BME280;3631;42.152;24.756;2022-12-18T05:55:08;100297.69;;;10.12;100.00
7180;BME280;3631;42.152;24.756;2022-12-18T05:57:36;100306.25;;;10.17;100.00
7180;BME280;3631;42.152;24.756;2022-12-18T06:00:04;100279.69;;;10.02;100.00
7180;BME280;3631;42.152;24.756;2022-12-18T06:02:31;100316.59;;;10.24;100.00
7180;BME280;3631;42.152;24.756;2022-12-18T06:04:58;100314.00;;;10.24;100.00
7180;BME280;3631;42.152;24.756;2022-12-18T06:07:25;100318.28;;;10.26;100.00
7180;BME280;3631;42.152;24.756;2022-12-18T06:09:51;100311.31;;;10.28;100.00
7180;BME280;3631;42.152;24.756;2022-12-18T06:12:18;100317.44;;;10.26;100.00
7180;BME280;3631;42.152;24.756;2022-12-18T06:14:47;100320.84;;;10.28;100.00
7180;BME280;3631;42.152;24.756;2022-12-18T06:17:13;100319.03;;;10.33;100.00
7180;BME280;3631;42.152;24.756;2022-12-18T06:19:40;100317.44;;;10.26;100.00
7180;BME280;3631;42.152;24.756;2022-12-18T06:22:07;100332.06;;;10.28;100.00
7180;BME280;3631;42.152;24.756;2022-12-18T06:24:34;100327.69;;;10.33;100.00
7180;BME280;3631;42.152;24.756;2022-12-18T06:27:01;100335.47;;;10.35;100.00
7180;BME280;3631;42.152;24.756;2022-12-18T06:29:28;100331.09;;;10.37;100.00
7180;BME280;3631;42.152;24.756;2022-12-18T06:31:56;100339.69;;;10.39;100.00
7180;BME280;3631;42.152;24.756;2022-12-18T06:34:23;100340.56;;;10.39;100.00
7180;BME280;3631;42.152;24.756;2022-12-18T06:36:50;100358.69;;;10.42;100.00
7180;BME280;3631;42.152;24.756;2022-12-18T06:39:17;100363.88;;;10.44;100.00
7180;BME280;3631;42.152;24.756;2022-12-18T06:41:44;100360.44;;;10.42;100.00
7180;BME280;3631;42.152;24.756;2022-12-18T06:44:11;100373.41;;;10.42;100.00
7180;BME280;3631;42.152;24.756;2022-12-18T06:46:38;100376.91;;;10.39;100.00
7180;BME280;3631;42.152;24.756;2022-12-18T06:49:06;100382.03;;;10.42;100.00
7180;BME280;3631;42.152;24.756;2022-12-18T06:51:34;100382.00;;;10.47;100.00
7180;BME280;3631;42.152;24.756;2022-12-18T06:54:01;100369.09;;;10.39;100.00
7180;BME280;3631;42.152;24.756;2022-12-18T06:56:29;100388.09;;;10.43;100.00
7180;BME280;3631;42.152;24.756;2022-12-18T06:58:56;100383.75;;;10.43;100.00
7180;BME280;3631;42.152;24.756;2022-12-18T07:01:23;100386.47;;;10.36;100.00
7180;BME280;3631;42.152;24.756;2022-12-18T07:03:52;100404.66;;;10.36;100.00
7180;BME280;3631;42.152;24.756;2022-12-18T07:06:24;100401.97;;;10.39;100.00
7180;BME280;3631;42.152;24.756;2022-12-18T07:08:53;100406.28;;;10.41;100.00
7180;BME280;3631;42.152;24.756;2022-12-18T07:11:20;100404.56;;;10.40;100.00
7180;BME280;3631;42.152;24.756;2022-12-18T07:13:47;100404.56;;;10.40;100.00
7180;BME280;3631;42.152;24.756;2022-12-18T07:16:15;100413.19;;;10.44;100.00
7180;BME280;3631;42.152;24.756;2022-12-18T07:18:43;100409.69;;;10.45;100.00
7180;BME280;3631;42.152;24.756;2022-12-18T07:21:11;100409.69;;;10.45;100.00
7180;BME280;3631;42.152;24.756;2022-12-18T07:23:39;100416.63;;;10.44;100.00
7180;BME280;3631;42.152;24.756;2022-12-18T07:26:07;100418.38;;;10.44;100.00
7180;BME280;3631;42.152;24.756;2022-12-18T07:28:36;100431.44;;;10.38;100.00
7180;BME280;3631;42.152;24.756;2022-12-18T07:31:03;100426.19;;;10.41;100.00
7180;BME280;3631;42.152;24.756;2022-12-18T07:33:32;100419.28;;;10.40;100.00
7180;BME280;3631;42.152;24.756;2022-12-18T07:35:59;100428.88;;;10.36;100.00
7180;BME280;3631;42.152;24.756;2022-12-18T07:38:26;100426.16;;;10.44;100.00
7180;BME280;3631;42.152;24.756;2022-12-18T07:40:54;100424.38;;;10.47;100.00
7180;BME280;3631;42.152;24.756;2022-12-18T07:43:21;100433.88;;;10.48;100.00
7180;BME280;3631;42.152;24.756;2022-12-18T07:45:49;100433.06;;;10.45;100.00
7180;BME280;3631;42.152;24.756;2022-12-18T07:48:16;100432.22;;;10.43;100.00
7180;BME280;3631;42.152;24.756;2022-12-18T07:50:43;100438.25;;;10.45;100.00
7180;BME280;3631;42.152;24.756;2022-12-18T07:53:10;100445.94;;;10.51;100.00
7180;BME280;3631;42.152;24.756;2022-12-18T07:55:36;100446.91;;;10.45;100.00
7180;BME280;3631;42.152;24.756;2022-12-18T07:58:05;100458.97;;;10.48;100.00
7180;BME280;3631;42.152;24.756;2022-12-18T08:00:32;100464.06;;;10.57;100.00
7180;BME280;3631;42.152;24.756;2022-12-18T08:02:58;100468.28;;;10.61;100.00
7180;BME280;3631;42.152;24.756;2022-12-18T08:05:26;100458.03;;;10.53;100.00
7180;BME280;3631;42.152;24.756;2022-12-18T08:07:53;100471.72;;;10.65;100.00
7180;BME280;3631;42.152;24.756;2022-12-18T08:10:21;100477.72;;;10.70;100.00
7180;BME280;3631;42.152;24.756;2022-12-18T08:12:49;100474.16;;;10.75;100.00
7180;BME280;3631;42.152;24.756;2022-12-18T08:15:18;100475.06;;;10.73;100.00
7180;BME280;3631;42.152;24.756;2022-12-18T08:17:45;100481.94;;;10.75;100.00
7180;BME280;3631;42.152;24.756;2022-12-18T08:20:11;100488.78;;;10.82;100.00
7180;BME280;3631;42.152;24.756;2022-12-18T08:22:40;100497.50;;;10.78;100.00
7180;BME280;3631;42.152;24.756;2022-12-18T08:25:08;100481.09;;;10.73;100.00
7180;BME280;3631;42.152;24.756;2022-12-18T08:27:35;100488.78;;;10.82;100.00
7180;BME280;3631;42.152;24.756;2022-12-18T08:30:03;100502.53;;;10.89;100.00
7180;BME280;3631;42.152;24.756;2022-12-18T08:32:32;100499.84;;;10.95;100.00
7180;BME280;3631;42.152;24.756;2022-12-18T08:34:59;100501.66;;;10.91;100.00
7180;BME280;3631;42.152;24.756;2022-12-18T08:37:26;100502.41;;;10.97;100.00
7180;BME280;3631;42.152;24.756;2022-12-18T08:39:53;100496.41;;;10.95;100.00
7180;BME280;3631;42.152;24.756;2022-12-18T08:42:20;100492.03;;;10.95;100.00
7180;BME280;3631;42.152;24.756;2022-12-18T08:45:04;100492.69;;;11.11;100.00
7180;BME280;3631;42.152;24.756;2022-12-18T08:47:33;100488.34;;;11.11;100.00
7180;BME280;3631;42.152;24.756;2022-12-18T08:50:00;100491.00;;;11.08;100.00
7180;BME280;3631;42.152;24.756;2022-12-18T08:52:27;100487.44;;;11.15;100.00
7180;BME280;3631;42.152;24.756;2022-12-18T08:54:54;100482.28;;;11.11;100.00
7180;BME280;3631;42.152;24.756;2022-12-18T08:57:21;100484.88;;;11.12;100.00
7180;BME280;3631;42.152;24.756;2022-12-18T08:59:48;100484.81;;;11.17;100.00
7180;BME280;3631;42.152;24.756;2022-12-18T09:02:14;100478.75;;;11.16;100.00
7180;BME280;3631;42.152;24.756;2022-12-18T09:04:43;100484.69;;;11.24;100.00
7180;BME280;3631;42.152;24.756;2022-12-18T09:07:10;100488.09;;;11.28;100.00
7180;BME280;3631;42.152;24.756;2022-12-18T09:09:36;100488.91;;;11.30;100.00
7180;BME280;3631;42.152;24.756;2022-12-18T09:12:03;100471.69;;;11.24;100.00
7180;BME280;3631;42.152;24.756;2022-12-18T09:14:30;100493.16;;;11.37;100.00
7180;BME280;3631;42.152;24.756;2022-12-18T09:16:57;100490.53;;;11.37;100.00
7180;BME280;3631;42.152;24.756;2022-12-18T09:19:24;100490.44;;;11.43;100.00
7180;BME280;3631;42.152;24.756;2022-12-18T09:21:52;100487.19;;;11.29;100.00
7180;BME280;3631;42.152;24.756;2022-12-18T09:24:23;100485.25;;;11.42;100.00
7180;BME280;3631;42.152;24.756;2022-12-18T09:26:53;100484.44;;;11.40;100.00
7180;BME280;3631;42.152;24.756;2022-12-18T09:29:20;100493.16;;;11.36;100.00
7180;BME280;3631;42.152;24.756;2022-12-18T09:31:47;100484.59;;;11.29;100.00
7180;BME280;3631;42.152;24.756;2022-12-18T09:34:14;100489.00;;;11.25;100.00
7180;BME280;3631;42.152;24.756;2022-12-18T09:36:42;100491.50;;;11.30;100.00
7180;BME280;3631;42.152;24.756;2022-12-18T09:39:10;100493.19;;;11.33;100.00
7180;BME280;3631;42.152;24.756;2022-12-18T09:41:43;100483.66;;;11.33;100.00
7180;BME280;3631;42.152;24.756;2022-12-18T09:44:17;100494.06;;;11.33;100.00
7180;BME280;3631;42.152;24.756;2022-12-18T09:46:47;100480.94;;;11.41;100.00
7180;BME280;3631;42.152;24.756;2022-12-18T09:49:18;100487.00;;;11.41;100.00
7180;BME280;3631;42.152;24.756;2022-12-18T09:51:50;100481.78;;;11.43;100.00
7180;BME280;3631;42.152;24.756;2022-12-18T09:54:22;100480.16;;;11.37;100.00
7180;BME280;3631;42.152;24.756;2022-12-18T09:56:51;100492.38;;;11.29;100.00
7180;BME280;3631;42.152;24.756;2022-12-18T09:59:22;100485.69;;;11.16;100.00
7180;BME280;3631;42.152;24.756;2022-12-18T10:01:50;100487.50;;;11.11;100.00
7180;BME280;3631;42.152;24.756;2022-12-18T10:04:18;100492.66;;;11.12;100.00
7180;BME280;3631;42.152;24.756;2022-12-18T10:06:51;100489.91;;;11.21;100.00
7180;BME280;3631;42.152;24.756;2022-12-18T10:09:27;100489.91;;;11.21;100.00
7180;BME280;3631;42.152;24.756;2022-12-18T10:12:02;100489.03;;;11.22;100.00
7180;BME280;3631;42.152;24.756;2022-12-18T10:14:36;100488.84;;;11.35;100.00
7180;BME280;3631;42.152;24.756;2022-12-18T10:17:14;100488.88;;;11.32;100.00
7180;BME280;3631;42.152;24.756;2022-12-18T10:19:48;100463.91;;;11.23;100.00
7180;BME280;3631;42.152;24.756;2022-12-18T10:22:36;100494.06;;;11.33;100.00
7180;BME280;3631;42.152;24.756;2022-12-18T10:25:17;100490.63;;;11.31;100.00
7180;BME280;3631;42.152;24.756;2022-12-18T10:27:46;100491.44;;;11.35;100.00
7180;BME280;3631;42.152;24.756;2022-12-18T10:30:15;100499.25;;;11.35;100.00
7180;BME280;3631;42.152;24.756;2022-12-18T10:32:42;100493.97;;;11.39;100.00
7180;BME280;3631;42.152;24.756;2022-12-18T10:35:16;100493.88;;;11.44;100.00
7180;BME280;3631;42.152;24.756;2022-12-18T10:38:00;100499.09;;;11.42;100.00
7180;BME280;3631;42.152;24.756;2022-12-18T10:40:29;100493.06;;;11.40;100.00
7180;BME280;3631;42.152;24.756;2022-12-18T10:43:11;100489.78;;;11.31;100.00
7180;BME280;3631;42.152;24.756;2022-12-18T10:45:38;100501.78;;;11.39;100.00
7180;BME280;3631;42.152;24.756;2022-12-18T10:48:18;100502.66;;;11.38;100.00
7180;BME280;3631;42.152;24.756;2022-12-18T10:50:47;100504.47;;;11.33;100.00
7180;BME280;3631;42.152;24.756;2022-12-18T10:53:19;100511.41;;;11.31;100.00
7180;BME280;3631;42.152;24.756;2022-12-18T10:55:48;100514.03;;;11.29;100.00
7180;BME280;3631;42.152;24.756;2022-12-18T10:58:21;100514.19;;;11.20;100.00
7180;BME280;3631;42.152;24.756;2022-12-18T11:01:02;100516.78;;;11.22;100.00
7180;BME280;3631;42.152;24.756;2022-12-18T11:03:32;100523.72;;;11.21;100.00
7180;BME280;3631;42.152;24.756;2022-12-18T11:06:09;100528.16;;;11.15;100.00
7180;BME280;3631;42.152;24.756;2022-12-18T11:08:36;100530.03;;;11.05;100.00
7180;BME280;3631;42.152;24.756;2022-12-18T11:11:14;100527.50;;;10.99;100.00
7180;BME280;3631;42.152;24.756;2022-12-18T11:13:55;100528.50;;;10.89;100.00
7180;BME280;3631;42.152;24.756;2022-12-18T11:16:26;100524.19;;;10.89;100.00
7180;BME280;3631;42.152;24.756;2022-12-18T11:18:53;100533.59;;;10.97;100.00
7180;BME280;3631;42.152;24.756;2022-12-18T11:21:21;100542.34;;;10.93;100.00
7180;BME280;3631;42.152;24.756;2022-12-18T11:23:50;100532.97;;;10.79;100.00
7180;BME280;3631;42.152;24.756;2022-12-18T11:26:20;100544.22;;;10.81;100.00
7180;BME280;3631;42.152;24.756;2022-12-18T11:28:49;100544.25;;;10.77;100.00
7180;BME280;3631;42.152;24.756;2022-12-18T11:31:23;100540.06;;;10.68;100.00
7180;BME280;3631;42.152;24.756;2022-12-18T11:33:56;100502.22;;;10.49;100.00
7180;BME280;3631;42.152;24.756;2022-12-18T11:36:25;100534.28;;;10.45;100.00
7180;BME280;3631;42.152;24.756;2022-12-18T11:38:55;100543.81;;;10.44;100.00
7180;BME280;3631;42.152;24.756;2022-12-18T11:41:30;100537.88;;;10.35;100.00
7180;BME280;3631;42.152;24.756;2022-12-18T11:44:16;100536.09;;;10.38;100.00
7180;BME280;3631;42.152;24.756;2022-12-18T11:46:49;100535.28;;;10.33;100.00
7180;BME280;3631;42.152;24.756;2022-12-18T11:49:22;100540.53;;;10.29;100.00
7180;BME280;3631;42.152;24.756;2022-12-18T11:51:55;100543.97;;;10.31;100.00
7180;BME280;3631;42.152;24.756;2022-12-18T11:54:25;100540.41;;;10.39;100.00
7180;BME280;3631;42.152;24.756;2022-12-18T11:56:57;100533.44;;;10.43;100.00
7180;BME280;3631;42.152;24.756;2022-12-18T11:59:34;100544.72;;;10.40;100.00
7180;BME280;3631;42.152;24.756;2022-12-18T12:02:16;100549.91;;;10.40;100.00
7180;BME280;3631;42.152;24.756;2022-12-18T12:05:10;100548.00;;;10.54;100.00
7180;BME280;3631;42.152;24.756;2022-12-18T12:07:45;100548.88;;;10.55;100.00
7180;BME280;3631;42.152;24.756;2022-12-18T12:10:36;100554.19;;;10.43;100.00
7180;BME280;3631;42.152;24.756;2022-12-18T12:13:18;100549.88;;;10.45;100.00
7180;BME280;3631;42.152;24.756;2022-12-18T12:15:56;100539.44;;;10.48;100.00
7180;BME280;3631;42.152;24.756;2022-12-18T12:18:29;100550.66;;;10.50;100.00
7180;BME280;3631;42.152;24.756;2022-12-18T12:21:05;100546.31;;;10.52;100.00
7180;BME280;3631;42.152;24.756;2022-12-18T12:23:40;100544.50;;;10.59;100.00
7180;BME280;3631;42.152;24.756;2022-12-18T12:26:13;100556.56;;;10.63;100.00
7180;BME280;3631;42.152;24.756;2022-12-18T12:28:56;100563.53;;;10.61;100.00
7180;BME280;3631;42.152;24.756;2022-12-18T12:31:36;100553.09;;;10.64;100.00
7180;BME280;3631;42.152;24.756;2022-12-18T12:34:10;100555.78;;;10.56;100.00
7180;BME280;3631;42.152;24.756;2022-12-18T12:36:51;100573.09;;;10.57;100.00
7180;BME280;3631;42.152;24.756;2022-12-18T12:39:23;100567.94;;;10.52;100.00
7180;BME280;3631;42.152;24.756;2022-12-18T12:41:53;100571.41;;;10.51;100.00
7180;BME280;3631;42.152;24.756;2022-12-18T12:44:43;100569.63;;;10.58;100.00
7180;BME280;3631;42.152;24.756;2022-12-18T12:47:15;100582.72;;;10.46;100.00
7180;BME280;3631;42.152;24.756;2022-12-18T12:49:43;100585.25;;;10.52;100.00
7180;BME280;3631;42.152;24.756;2022-12-18T12:52:15;100593.97;;;10.45;100.00
7180;BME280;3631;42.152;24.756;2022-12-18T12:54:44;100596.59;;;10.43;100.00
7180;BME280;3631;42.152;24.756;2022-12-18T12:57:17;100600.03;;;10.45;100.00
7180;BME280;3631;42.152;24.756;2022-12-18T12:59:52;100605.22;;;10.45;100.00
7180;BME280;3631;42.152;24.756;2022-12-18T13:02:30;100610.44;;;10.44;100.00
7180;BME280;3631;42.152;24.756;2022-12-18T13:05:03;100613.06;;;10.39;100.00